sensor_id;sensor_type;location;lat;lon;timestamp;P1;durP1;ratioP1;P2;durP2;ratioP2
71303;SDS011;59091;47.446;19.148;2023-05-10T00:00:28;2.83;;;2.60;;
71303;SDS011;59091;47.446;19.148;2023-05-10T00:02:53;2.70;;;2.50;;
71303;SDS011;59091;47.446;19.148;2023-05-10T00:05:18;4.95;;;2.97;;
71303;SDS011;59091;47.446;19.148;2023-05-10T00:07:44;3.60;;;2.80;;
71303;SDS011;59091;47.446;19.148;2023-05-10T00:10:10;6.97;;;3.05;;
71303;SDS011;59091;47.446;19.148;2023-05-10T00:12:36;3.65;;;2.70;;
71303;SDS011;59091;47.446;19.148;2023-05-10T00:15:01;4.25;;;2.50;;
71303;SDS011;59091;47.446;19.148;2023-05-10T00:17:27;2.70;;;2.45;;
71303;SDS011;59091;47.446;19.148;2023-05-10T00:19:53;3.00;;;2.67;;
71303;SDS011;59091;47.446;19.148;2023-05-10T00:22:19;3.40;;;2.95;;
71303;SDS011;59091;47.446;19.148;2023-05-10T00:24:45;3.40;;;2.83;;
71303;SDS011;59091;47.446;19.148;2023-05-10T00:27:10;7.30;;;2.80;;
71303;SDS011;59091;47.446;19.148;2023-05-10T00:29:35;4.90;;;3.00;;
71303;SDS011;59091;47.446;19.148;2023-05-10T00:32:01;4.72;;;2.90;;
71303;SDS011;59091;47.446;19.148;2023-05-10T00:34:26;4.60;;;2.75;;
71303;SDS011;59091;47.446;19.148;2023-05-10T00:36:52;3.85;;;3.15;;
71303;SDS011;59091;47.446;19.148;2023-05-10T00:39:17;4.30;;;2.90;;
71303;SDS011;59091;47.446;19.148;2023-05-10T00:41:43;4.18;;;3.03;;
71303;SDS011;59091;47.446;19.148;2023-05-10T00:44:08;4.40;;;3.13;;
71303;SDS011;59091;47.446;19.148;2023-05-10T00:46:34;5.70;;;3.20;;
71303;SDS011;59091;47.446;19.148;2023-05-10T00:48:59;3.15;;;2.88;;
71303;SDS011;59091;47.446;19.148;2023-05-10T00:51:25;6.25;;;3.10;;
71303;SDS011;59091;47.446;19.148;2023-05-10T00:53:51;4.40;;;3.25;;
71303;SDS011;59091;47.446;19.148;2023-05-10T00:56:16;7.60;;;3.17;;
71303;SDS011;59091;47.446;19.148;2023-05-10T00:58:42;3.53;;;3.05;;
71303;SDS011;59091;47.446;19.148;2023-05-10T01:01:08;4.00;;;3.35;;
71303;SDS011;59091;47.446;19.148;2023-05-10T01:03:34;3.67;;;3.15;;
71303;SDS011;59091;47.446;19.148;2023-05-10T01:06:01;6.82;;;3.45;;
71303;SDS011;59091;47.446;19.148;2023-05-10T01:08:26;9.70;;;3.30;;
71303;SDS011;59091;47.446;19.148;2023-05-10T01:10:52;3.72;;;3.42;;
71303;SDS011;59091;47.446;19.148;2023-05-10T01:13:23;5.65;;;3.03;;
71303;SDS011;59091;47.446;19.148;2023-05-10T01:16:01;4.13;;;3.25;;
71303;SDS011;59091;47.446;19.148;2023-05-10T01:18:30;4.18;;;3.30;;
71303;SDS011;59091;47.446;19.148;2023-05-10T01:21:10;3.75;;;3.25;;
71303;SDS011;59091;47.446;19.148;2023-05-10T01:24:09;3.72;;;3.38;;
71303;SDS011;59091;47.446;19.148;2023-05-10T01:29:47;3.72;;;3.42;;
71303;SDS011;59091;47.446;19.148;2023-05-10T01:35:36;4.05;;;3.40;;
71303;SDS011;59091;47.446;19.148;2023-05-10T01:40:48;4.10;;;3.47;;
71303;SDS011;59091;47.446;19.148;2023-05-10T01:43:23;6.53;;;3.35;;
71303;SDS011;59091;47.446;19.148;2023-05-10T01:48:35;4.10;;;3.42;;
71303;SDS011;59091;47.446;19.148;2023-05-10T01:51:05;3.60;;;3.10;;
71303;SDS011;59091;47.446;19.148;2023-05-10T01:53:33;3.97;;;3.58;;
71303;SDS011;59091;47.446;19.148;2023-05-10T01:56:02;4.50;;;3.70;;
71303;SDS011;59091;47.446;19.148;2023-05-10T01:58:30;3.92;;;3.40;;
71303;SDS011;59091;47.446;19.148;2023-05-10T02:00:58;6.32;;;3.42;;
71303;SDS011;59091;47.446;19.148;2023-05-10T02:03:27;4.20;;;3.55;;
71303;SDS011;59091;47.446;19.148;2023-05-10T02:05:53;3.70;;;3.40;;
71303;SDS011;59091;47.446;19.148;2023-05-10T02:08:21;4.65;;;3.45;;
71303;SDS011;59091;47.446;19.148;2023-05-10T02:10:47;6.45;;;3.83;;
71303;SDS011;59091;47.446;19.148;2023-05-10T02:13:16;7.32;;;3.60;;
71303;SDS011;59091;47.446;19.148;2023-05-10T02:15:43;5.20;;;3.40;;
71303;SDS011;59091;47.446;19.148;2023-05-10T02:18:12;9.80;;;3.83;;
71303;SDS011;59091;47.446;19.148;2023-05-10T02:20:39;7.32;;;3.35;;
71303;SDS011;59091;47.446;19.148;2023-05-10T02:23:05;3.70;;;3.40;;
71303;SDS011;59091;47.446;19.148;2023-05-10T02:25:32;5.85;;;3.42;;
71303;SDS011;59091;47.446;19.148;2023-05-10T02:27:57;5.07;;;3.55;;
71303;SDS011;59091;47.446;19.148;2023-05-10T02:30:26;3.40;;;3.10;;
71303;SDS011;59091;47.446;19.148;2023-05-10T02:32:52;4.13;;;3.10;;
71303;SDS011;59091;47.446;19.148;2023-05-10T02:35:18;3.30;;;3.00;;
71303;SDS011;59091;47.446;19.148;2023-05-10T02:37:45;3.85;;;3.20;;
71303;SDS011;59091;47.446;19.148;2023-05-10T02:40:12;3.80;;;3.25;;
71303;SDS011;59091;47.446;19.148;2023-05-10T02:42:41;4.78;;;3.65;;
71303;SDS011;59091;47.446;19.148;2023-05-10T02:45:13;6.78;;;3.55;;
71303;SDS011;59091;47.446;19.148;2023-05-10T02:47:42;8.02;;;3.67;;
71303;SDS011;59091;47.446;19.148;2023-05-10T02:50:08;4.18;;;3.50;;
71303;SDS011;59091;47.446;19.148;2023-05-10T02:52:42;5.20;;;3.17;;
71303;SDS011;59091;47.446;19.148;2023-05-10T02:55:14;4.65;;;3.10;;
71303;SDS011;59091;47.446;19.148;2023-05-10T02:58:02;3.58;;;3.28;;
71303;SDS011;59091;47.446;19.148;2023-05-10T03:00:27;3.78;;;3.47;;
71303;SDS011;59091;47.446;19.148;2023-05-10T03:02:53;4.20;;;3.80;;
71303;SDS011;59091;47.446;19.148;2023-05-10T03:05:19;4.15;;;3.72;;
71303;SDS011;59091;47.446;19.148;2023-05-10T03:07:45;3.95;;;3.42;;
71303;SDS011;59091;47.446;19.148;2023-05-10T03:10:11;3.78;;;3.47;;
71303;SDS011;59091;47.446;19.148;2023-05-10T03:12:56;5.65;;;3.55;;
71303;SDS011;59091;47.446;19.148;2023-05-10T03:15:37;4.78;;;3.97;;
71303;SDS011;59091;47.446;19.148;2023-05-10T03:18:21;4.20;;;3.80;;
71303;SDS011;59091;47.446;19.148;2023-05-10T03:20:51;5.50;;;3.60;;
71303;SDS011;59091;47.446;19.148;2023-05-10T03:23:27;4.88;;;3.85;;
71303;SDS011;59091;47.446;19.148;2023-05-10T03:25:59;4.93;;;4.07;;
71303;SDS011;59091;47.446;19.148;2023-05-10T03:28:25;7.30;;;4.20;;
71303;SDS011;59091;47.446;19.148;2023-05-10T03:30:52;5.20;;;3.75;;
71303;SDS011;59091;47.446;19.148;2023-05-10T03:33:19;4.38;;;3.97;;
71303;SDS011;59091;47.446;19.148;2023-05-10T03:35:45;4.03;;;3.40;;
71303;SDS011;59091;47.446;19.148;2023-05-10T03:38:11;4.80;;;3.88;;
71303;SDS011;59091;47.446;19.148;2023-05-10T03:40:37;7.60;;;4.03;;
71303;SDS011;59091;47.446;19.148;2023-05-10T03:43:02;4.60;;;3.70;;
71303;SDS011;59091;47.446;19.148;2023-05-10T03:45:28;5.15;;;3.78;;
71303;SDS011;59091;47.446;19.148;2023-05-10T03:47:53;11.95;;;3.88;;
71303;SDS011;59091;47.446;19.148;2023-05-10T03:50:19;4.50;;;3.95;;
71303;SDS011;59091;47.446;19.148;2023-05-10T03:52:45;5.90;;;4.03;;
71303;SDS011;59091;47.446;19.148;2023-05-10T03:55:10;5.28;;;4.40;;
71303;SDS011;59091;47.446;19.148;2023-05-10T03:57:36;6.60;;;4.30;;
71303;SDS011;59091;47.446;19.148;2023-05-10T04:00:02;6.82;;;3.90;;
71303;SDS011;59091;47.446;19.148;2023-05-10T04:02:28;3.97;;;3.65;;
71303;SDS011;59091;47.446;19.148;2023-05-10T04:04:54;6.07;;;3.75;;
71303;SDS011;59091;47.446;19.148;2023-05-10T04:07:20;6.35;;;4.00;;
71303;SDS011;59091;47.446;19.148;2023-05-10T04:09:46;4.70;;;3.78;;
71303;SDS011;59091;47.446;19.148;2023-05-10T04:12:12;8.30;;;4.28;;
71303;SDS011;59091;47.446;19.148;2023-05-10T04:14:37;6.18;;;4.15;;
71303;SDS011;59091;47.446;19.148;2023-05-10T04:17:02;5.38;;;3.97;;
71303;SDS011;59091;47.446;19.148;2023-05-10T04:19:28;5.68;;;4.13;;
71303;SDS011;59091;47.446;19.148;2023-05-10T04:21:57;5.13;;;4.05;;
71303;SDS011;59091;47.446;19.148;2023-05-10T04:24:23;6.70;;;4.25;;
71303;SDS011;59091;47.446;19.148;2023-05-10T04:26:49;6.07;;;4.43;;
71303;SDS011;59091;47.446;19.148;2023-05-10T04:29:14;12.23;;;4.03;;
71303;SDS011;59091;47.446;19.148;2023-05-10T04:31:39;5.07;;;4.18;;
71303;SDS011;59091;47.446;19.148;2023-05-10T04:34:05;4.90;;;4.25;;
71303;SDS011;59091;47.446;19.148;2023-05-10T04:36:30;7.20;;;4.28;;
71303;SDS011;59091;47.446;19.148;2023-05-10T04:38:57;5.18;;;4.05;;
71303;SDS011;59091;47.446;19.148;2023-05-10T04:41:23;4.13;;;3.72;;
71303;SDS011;59091;47.446;19.148;2023-05-10T04:43:49;5.00;;;4.50;;
71303;SDS011;59091;47.446;19.148;2023-05-10T04:46:15;8.25;;;4.43;;
71303;SDS011;59091;47.446;19.148;2023-05-10T04:48:40;7.15;;;4.43;;
71303;SDS011;59091;47.446;19.148;2023-05-10T04:51:06;7.40;;;4.15;;
71303;SDS011;59091;47.446;19.148;2023-05-10T04:53:31;6.38;;;4.35;;
71303;SDS011;59091;47.446;19.148;2023-05-10T04:55:57;6.85;;;4.45;;
71303;SDS011;59091;47.446;19.148;2023-05-10T04:58:22;9.00;;;5.05;;
71303;SDS011;59091;47.446;19.148;2023-05-10T05:00:48;4.88;;;4.38;;
71303;SDS011;59091;47.446;19.148;2023-05-10T05:03:13;8.40;;;4.68;;
71303;SDS011;59091;47.446;19.148;2023-05-10T05:05:39;11.13;;;4.50;;
71303;SDS011;59091;47.446;19.148;2023-05-10T05:08:04;7.07;;;4.68;;
71303;SDS011;59091;47.446;19.148;2023-05-10T05:10:30;9.93;;;4.60;;
71303;SDS011;59091;47.446;19.148;2023-05-10T05:12:55;8.07;;;4.32;;
71303;SDS011;59091;47.446;19.148;2023-05-10T05:15:21;5.40;;;4.30;;
71303;SDS011;59091;47.446;19.148;2023-05-10T05:17:46;9.02;;;4.65;;
71303;SDS011;59091;47.446;19.148;2023-05-10T05:20:12;7.28;;;4.90;;
71303;SDS011;59091;47.446;19.148;2023-05-10T05:22:38;8.07;;;5.10;;
71303;SDS011;59091;47.446;19.148;2023-05-10T05:25:04;8.20;;;4.80;;
71303;SDS011;59091;47.446;19.148;2023-05-10T05:27:30;9.13;;;4.55;;
71303;SDS011;59091;47.446;19.148;2023-05-10T05:29:56;6.65;;;4.95;;
71303;SDS011;59091;47.446;19.148;2023-05-10T05:32:22;6.25;;;4.85;;
71303;SDS011;59091;47.446;19.148;2023-05-10T05:34:48;5.20;;;4.70;;
71303;SDS011;59091;47.446;19.148;2023-05-10T05:37:19;5.97;;;4.63;;
71303;SDS011;59091;47.446;19.148;2023-05-10T05:39:46;6.60;;;4.53;;
71303;SDS011;59091;47.446;19.148;2023-05-10T05:42:12;6.50;;;4.70;;
71303;SDS011;59091;47.446;19.148;2023-05-10T05:44:38;9.38;;;4.88;;
71303;SDS011;59091;47.446;19.148;2023-05-10T05:47:05;8.00;;;4.45;;
71303;SDS011;59091;47.446;19.148;2023-05-10T05:49:30;8.25;;;4.57;;
71303;SDS011;59091;47.446;19.148;2023-05-10T05:51:59;8.23;;;4.63;;
71303;SDS011;59091;47.446;19.148;2023-05-10T05:54:26;10.80;;;4.47;;
71303;SDS011;59091;47.446;19.148;2023-05-10T05:56:53;5.20;;;3.97;;
71303;SDS011;59091;47.446;19.148;2023-05-10T05:59:20;6.72;;;4.28;;
71303;SDS011;59091;47.446;19.148;2023-05-10T06:01:46;10.15;;;5.30;;
71303;SDS011;59091;47.446;19.148;2023-05-10T06:04:11;11.32;;;5.72;;
71303;SDS011;59091;47.446;19.148;2023-05-10T06:06:37;10.68;;;5.68;;
71303;SDS011;59091;47.446;19.148;2023-05-10T06:09:02;4.57;;;4.15;;
71303;SDS011;59091;47.446;19.148;2023-05-10T06:11:28;4.57;;;4.05;;
71303;SDS011;59091;47.446;19.148;2023-05-10T06:13:53;8.60;;;4.68;;
71303;SDS011;59091;47.446;19.148;2023-05-10T06:16:25;5.65;;;4.53;;
71303;SDS011;59091;47.446;19.148;2023-05-10T06:19:03;9.93;;;4.35;;
71303;SDS011;59091;47.446;19.148;2023-05-10T06:21:29;5.97;;;4.45;;
71303;SDS011;59091;47.446;19.148;2023-05-10T06:23:55;4.53;;;4.10;;
71303;SDS011;59091;47.446;19.148;2023-05-10T06:26:20;4.90;;;4.30;;
71303;SDS011;59091;47.446;19.148;2023-05-10T06:28:46;8.43;;;4.85;;
71303;SDS011;59091;47.446;19.148;2023-05-10T06:31:11;5.95;;;4.72;;
71303;SDS011;59091;47.446;19.148;2023-05-10T06:33:37;13.25;;;4.65;;
71303;SDS011;59091;47.446;19.148;2023-05-10T06:36:02;5.22;;;4.40;;
71303;SDS011;59091;47.446;19.148;2023-05-10T06:38:28;5.00;;;4.45;;
71303;SDS011;59091;47.446;19.148;2023-05-10T06:40:54;5.05;;;4.53;;
71303;SDS011;59091;47.446;19.148;2023-05-10T06:43:20;6.25;;;4.53;;
71303;SDS011;59091;47.446;19.148;2023-05-10T06:45:45;5.50;;;4.32;;
71303;SDS011;59091;47.446;19.148;2023-05-10T06:48:11;6.97;;;4.50;;
71303;SDS011;59091;47.446;19.148;2023-05-10T06:50:36;8.35;;;4.40;;
71303;SDS011;59091;47.446;19.148;2023-05-10T06:53:01;5.82;;;4.07;;
71303;SDS011;59091;47.446;19.148;2023-05-10T06:55:27;7.85;;;4.55;;
71303;SDS011;59091;47.446;19.148;2023-05-10T06:57:53;4.40;;;4.00;;
71303;SDS011;59091;47.446;19.148;2023-05-10T07:00:19;4.75;;;4.25;;
71303;SDS011;59091;47.446;19.148;2023-05-10T07:02:44;8.10;;;4.30;;
71303;SDS011;59091;47.446;19.148;2023-05-10T07:05:10;8.18;;;4.50;;
71303;SDS011;59091;47.446;19.148;2023-05-10T07:07:36;13.20;;;5.20;;
71303;SDS011;59091;47.446;19.148;2023-05-10T07:10:02;6.60;;;3.85;;
71303;SDS011;59091;47.446;19.148;2023-05-10T07:12:27;4.55;;;4.00;;
71303;SDS011;59091;47.446;19.148;2023-05-10T07:14:53;4.00;;;3.60;;
71303;SDS011;59091;47.446;19.148;2023-05-10T07:17:18;4.22;;;3.63;;
71303;SDS011;59091;47.446;19.148;2023-05-10T07:19:44;4.30;;;3.53;;
71303;SDS011;59091;47.446;19.148;2023-05-10T07:22:09;6.78;;;3.83;;
71303;SDS011;59091;47.446;19.148;2023-05-10T07:24:35;4.13;;;3.78;;
71303;SDS011;59091;47.446;19.148;2023-05-10T07:27:00;4.00;;;3.60;;
71303;SDS011;59091;47.446;19.148;2023-05-10T07:29:26;3.70;;;3.40;;
71303;SDS011;59091;47.446;19.148;2023-05-10T07:31:51;4.93;;;3.30;;
71303;SDS011;59091;47.446;19.148;2023-05-10T07:34:17;4.25;;;3.83;;
71303;SDS011;59091;47.446;19.148;2023-05-10T07:36:42;5.88;;;3.38;;
71303;SDS011;59091;47.446;19.148;2023-05-10T07:39:08;3.50;;;3.20;;
71303;SDS011;59091;47.446;19.148;2023-05-10T07:41:33;3.53;;;3.22;;
71303;SDS011;59091;47.446;19.148;2023-05-10T07:43:58;7.43;;;3.70;;
71303;SDS011;59091;47.446;19.148;2023-05-10T07:46:24;6.70;;;3.60;;
71303;SDS011;59091;47.446;19.148;2023-05-10T07:48:49;5.00;;;3.53;;
71303;SDS011;59091;47.446;19.148;2023-05-10T07:51:15;4.00;;;3.60;;
71303;SDS011;59091;47.446;19.148;2023-05-10T07:53:40;5.32;;;3.40;;
71303;SDS011;59091;47.446;19.148;2023-05-10T07:58:58;6.00;;;3.45;;
71303;SDS011;59091;47.446;19.148;2023-05-10T08:01:24;11.07;;;3.80;;
71303;SDS011;59091;47.446;19.148;2023-05-10T08:03:50;8.02;;;3.42;;
71303;SDS011;59091;47.446;19.148;2023-05-10T08:06:19;4.28;;;3.35;;
71303;SDS011;59091;47.446;19.148;2023-05-10T08:08:46;5.40;;;3.45;;
71303;SDS011;59091;47.446;19.148;2023-05-10T08:11:15;5.18;;;3.08;;
71303;SDS011;59091;47.446;19.148;2023-05-10T08:13:43;4.25;;;3.85;;
71303;SDS011;59091;47.446;19.148;2023-05-10T08:16:09;5.07;;;3.40;;
71303;SDS011;59091;47.446;19.148;2023-05-10T08:18:35;6.50;;;3.75;;
71303;SDS011;59091;47.446;19.148;2023-05-10T08:21:00;7.32;;;3.90;;
71303;SDS011;59091;47.446;19.148;2023-05-10T08:23:26;5.05;;;3.55;;
71303;SDS011;59091;47.446;19.148;2023-05-10T08:25:51;5.88;;;3.20;;
71303;SDS011;59091;47.446;19.148;2023-05-10T08:28:17;3.47;;;3.03;;
71303;SDS011;59091;47.446;19.148;2023-05-10T08:30:42;6.30;;;2.78;;
71303;SDS011;59091;47.446;19.148;2023-05-10T08:33:08;6.05;;;3.47;;
71303;SDS011;59091;47.446;19.148;2023-05-10T08:35:33;3.95;;;3.58;;
71303;SDS011;59091;47.446;19.148;2023-05-10T08:38:00;3.90;;;3.55;;
71303;SDS011;59091;47.446;19.148;2023-05-10T08:40:25;3.40;;;3.10;;
71303;SDS011;59091;47.446;19.148;2023-05-10T08:42:54;5.18;;;3.10;;
71303;SDS011;59091;47.446;19.148;2023-05-10T08:45:23;3.40;;;3.00;;
71303;SDS011;59091;47.446;19.148;2023-05-10T08:47:50;4.03;;;3.05;;
71303;SDS011;59091;47.446;19.148;2023-05-10T08:50:18;6.05;;;3.10;;
71303;SDS011;59091;47.446;19.148;2023-05-10T08:52:46;6.18;;;3.25;;
71303;SDS011;59091;47.446;19.148;2023-05-10T08:55:15;3.47;;;3.17;;
71303;SDS011;59091;47.446;19.148;2023-05-10T08:57:40;5.22;;;2.80;;
71303;SDS011;59091;47.446;19.148;2023-05-10T09:00:06;6.00;;;3.45;;
71303;SDS011;59091;47.446;19.148;2023-05-10T09:02:33;4.18;;;3.20;;
71303;SDS011;59091;47.446;19.148;2023-05-10T09:04:59;4.03;;;3.40;;
71303;SDS011;59091;47.446;19.148;2023-05-10T09:07:25;4.53;;;3.47;;
71303;SDS011;59091;47.446;19.148;2023-05-10T09:09:51;3.50;;;3.20;;
71303;SDS011;59091;47.446;19.148;2023-05-10T09:12:17;3.50;;;3.20;;
71303;SDS011;59091;47.446;19.148;2023-05-10T09:14:43;4.22;;;3.42;;
71303;SDS011;59091;47.446;19.148;2023-05-10T09:17:09;8.05;;;3.15;;
71303;SDS011;59091;47.446;19.148;2023-05-10T09:19:35;5.75;;;3.53;;
71303;SDS011;59091;47.446;19.148;2023-05-10T09:22:01;4.05;;;3.10;;
71303;SDS011;59091;47.446;19.148;2023-05-10T09:24:28;3.42;;;3.13;;
71303;SDS011;59091;47.446;19.148;2023-05-10T09:26:56;4.47;;;3.20;;
71303;SDS011;59091;47.446;19.148;2023-05-10T09:29:23;3.83;;;3.53;;
71303;SDS011;59091;47.446;19.148;2023-05-10T09:31:50;3.10;;;2.90;;
71303;SDS011;59091;47.446;19.148;2023-05-10T09:34:17;4.53;;;3.42;;
71303;SDS011;59091;47.446;19.148;2023-05-10T09:36:50;7.05;;;3.35;;
71303;SDS011;59091;47.446;19.148;2023-05-10T09:39:20;7.15;;;3.53;;
71303;SDS011;59091;47.446;19.148;2023-05-10T09:41:45;4.95;;;3.30;;
71303;SDS011;59091;47.446;19.148;2023-05-10T09:44:12;3.53;;;3.22;;
71303;SDS011;59091;47.446;19.148;2023-05-10T09:46:42;6.97;;;3.33;;
71303;SDS011;59091;47.446;19.148;2023-05-10T09:49:08;4.63;;;3.60;;
71303;SDS011;59091;47.446;19.148;2023-05-10T09:51:39;3.45;;;3.13;;
71303;SDS011;59091;47.446;19.148;2023-05-10T09:54:09;3.08;;;2.78;;
71303;SDS011;59091;47.446;19.148;2023-05-10T09:56:37;4.90;;;2.90;;
71303;SDS011;59091;47.446;19.148;2023-05-10T09:59:05;3.45;;;2.72;;
71303;SDS011;59091;47.446;19.148;2023-05-10T10:01:32;4.93;;;2.92;;
71303;SDS011;59091;47.446;19.148;2023-05-10T10:03:58;14.18;;;2.72;;
71303;SDS011;59091;47.446;19.148;2023-05-10T10:06:24;3.30;;;2.78;;
71303;SDS011;59091;47.446;19.148;2023-05-10T10:08:50;3.50;;;3.20;;
71303;SDS011;59091;47.446;19.148;2023-05-10T10:11:16;4.38;;;2.70;;
71303;SDS011;59091;47.446;19.148;2023-05-10T10:13:42;2.72;;;2.53;;
71303;SDS011;59091;47.446;19.148;2023-05-10T10:16:08;2.65;;;2.40;;
71303;SDS011;59091;47.446;19.148;2023-05-10T10:18:34;4.07;;;2.58;;
71303;SDS011;59091;47.446;19.148;2023-05-10T10:21:04;4.18;;;2.28;;
71303;SDS011;59091;47.446;19.148;2023-05-10T10:23:31;2.70;;;2.50;;
71303;SDS011;59091;47.446;19.148;2023-05-10T10:25:56;2.25;;;2.15;;
71303;SDS011;59091;47.446;19.148;2023-05-10T10:28:24;3.65;;;2.20;;
71303;SDS011;59091;47.446;19.148;2023-05-10T10:30:57;4.97;;;2.67;;
71303;SDS011;59091;47.446;19.148;2023-05-10T10:33:51;4.20;;;2.90;;
71303;SDS011;59091;47.446;19.148;2023-05-10T10:36:24;4.47;;;2.50;;
71303;SDS011;59091;47.446;19.148;2023-05-10T10:41:32;2.40;;;2.25;;
71303;SDS011;59091;47.446;19.148;2023-05-10T10:50:02;2.22;;;2.13;;
71303;SDS011;59091;47.446;19.148;2023-05-10T11:00:23;2.35;;;2.15;;
71303;SDS011;59091;47.446;19.148;2023-05-10T11:03:12;5.00;;;2.47;;
71303;SDS011;59091;47.446;19.148;2023-05-10T11:08:25;2.63;;;2.42;;
71303;SDS011;59091;47.446;19.148;2023-05-10T11:13:34;2.35;;;2.15;;
71303;SDS011;59091;47.446;19.148;2023-05-10T11:16:16;2.30;;;2.08;;
71303;SDS011;59091;47.446;19.148;2023-05-10T11:18:53;2.08;;;1.85;;
71303;SDS011;59091;47.446;19.148;2023-05-10T11:21:21;3.17;;;2.08;;
71303;SDS011;59091;47.446;19.148;2023-05-10T11:26:12;2.20;;;1.80;;
71303;SDS011;59091;47.446;19.148;2023-05-10T11:28:42;4.25;;;2.20;;
71303;SDS011;59091;47.446;19.148;2023-05-10T11:31:08;10.60;;;2.03;;
71303;SDS011;59091;47.446;19.148;2023-05-10T11:33:43;2.40;;;1.80;;
71303;SDS011;59091;47.446;19.148;2023-05-10T11:36:17;3.40;;;1.90;;
71303;SDS011;59091;47.446;19.148;2023-05-10T11:38:44;2.30;;;2.10;;
71303;SDS011;59091;47.446;19.148;2023-05-10T11:41:10;2.97;;;2.00;;
71303;SDS011;59091;47.446;19.148;2023-05-10T11:43:38;3.10;;;2.10;;
71303;SDS011;59091;47.446;19.148;2023-05-10T11:46:05;4.57;;;1.80;;
71303;SDS011;59091;47.446;19.148;2023-05-10T11:48:31;3.65;;;1.92;;
71303;SDS011;59091;47.446;19.148;2023-05-10T11:50:57;6.30;;;1.98;;
71303;SDS011;59091;47.446;19.148;2023-05-10T11:53:23;10.30;;;1.90;;
71303;SDS011;59091;47.446;19.148;2023-05-10T11:55:50;7.05;;;1.98;;
71303;SDS011;59091;47.446;19.148;2023-05-10T11:58:17;5.72;;;1.92;;
71303;SDS011;59091;47.446;19.148;2023-05-10T12:00:43;3.38;;;1.98;;
71303;SDS011;59091;47.446;19.148;2023-05-10T12:03:09;7.32;;;2.20;;
71303;SDS011;59091;47.446;19.148;2023-05-10T12:05:35;4.65;;;1.98;;
71303;SDS011;59091;47.446;19.148;2023-05-10T12:08:14;6.38;;;2.97;;
71303;SDS011;59091;47.446;19.148;2023-05-10T12:10:40;2.70;;;2.50;;
71303;SDS011;59091;47.446;19.148;2023-05-10T12:13:10;2.55;;;1.98;;
71303;SDS011;59091;47.446;19.148;2023-05-10T12:15:36;4.18;;;1.90;;
71303;SDS011;59091;47.446;19.148;2023-05-10T12:18:02;1.88;;;1.77;;
71303;SDS011;59091;47.446;19.148;2023-05-10T12:20:28;2.35;;;1.70;;
71303;SDS011;59091;47.446;19.148;2023-05-10T12:22:54;3.88;;;2.10;;
71303;SDS011;59091;47.446;19.148;2023-05-10T12:25:21;2.10;;;1.90;;
71303;SDS011;59091;47.446;19.148;2023-05-10T12:27:48;3.83;;;1.80;;
71303;SDS011;59091;47.446;19.148;2023-05-10T12:30:18;1.80;;;1.70;;
71303;SDS011;59091;47.446;19.148;2023-05-10T12:32:51;6.63;;;3.30;;
71303;SDS011;59091;47.446;19.148;2023-05-10T12:35:17;6.47;;;2.60;;
71303;SDS011;59091;47.446;19.148;2023-05-10T12:37:48;4.03;;;2.17;;
71303;SDS011;59091;47.446;19.148;2023-05-10T12:40:14;1.80;;;1.70;;
71303;SDS011;59091;47.446;19.148;2023-05-10T12:42:39;2.63;;;1.92;;
71303;SDS011;59091;47.446;19.148;2023-05-10T12:45:05;3.22;;;2.03;;
71303;SDS011;59091;47.446;19.148;2023-05-10T12:47:32;1.90;;;1.80;;
71303;SDS011;59091;47.446;19.148;2023-05-10T12:49:59;5.63;;;1.70;;
71303;SDS011;59091;47.446;19.148;2023-05-10T12:52:26;1.95;;;1.70;;
71303;SDS011;59091;47.446;19.148;2023-05-10T12:54:52;2.95;;;1.52;;
71303;SDS011;59091;47.446;19.148;2023-05-10T12:57:19;2.22;;;1.63;;
71303;SDS011;59091;47.446;19.148;2023-05-10T12:59:45;2.58;;;1.63;;
71303;SDS011;59091;47.446;19.148;2023-05-10T13:02:11;2.08;;;1.50;;
71303;SDS011;59091;47.446;19.148;2023-05-10T13:04:36;2.45;;;1.27;;
71303;SDS011;59091;47.446;19.148;2023-05-10T13:07:05;1.52;;;1.42;;
71303;SDS011;59091;47.446;19.148;2023-05-10T13:09:34;4.75;;;1.38;;
71303;SDS011;59091;47.446;19.148;2023-05-10T13:11:59;1.90;;;1.50;;
71303;SDS011;59091;47.446;19.148;2023-05-10T13:14:25;2.97;;;1.42;;
71303;SDS011;59091;47.446;19.148;2023-05-10T13:16:51;2.75;;;1.52;;
71303;SDS011;59091;47.446;19.148;2023-05-10T13:19:16;2.15;;;1.50;;
71303;SDS011;59091;47.446;19.148;2023-05-10T13:21:42;6.20;;;1.50;;
71303;SDS011;59091;47.446;19.148;2023-05-10T13:24:09;4.63;;;1.70;;
71303;SDS011;59091;47.446;19.148;2023-05-10T13:26:35;1.70;;;1.60;;
71303;SDS011;59091;47.446;19.148;2023-05-10T13:29:02;1.70;;;1.60;;
71303;SDS011;59091;47.446;19.148;2023-05-10T13:31:28;1.92;;;1.83;;
71303;SDS011;59091;47.446;19.148;2023-05-10T13:33:53;1.88;;;1.38;;
71303;SDS011;59091;47.446;19.148;2023-05-10T13:36:19;2.08;;;1.35;;
71303;SDS011;59091;47.446;19.148;2023-05-10T13:38:44;1.48;;;1.40;;
71303;SDS011;59091;47.446;19.148;2023-05-10T13:41:10;1.40;;;1.30;;
71303;SDS011;59091;47.446;19.148;2023-05-10T13:43:36;2.20;;;1.60;;
71303;SDS011;59091;47.446;19.148;2023-05-10T13:46:01;4.53;;;1.60;;
71303;SDS011;59091;47.446;19.148;2023-05-10T13:48:27;1.98;;;1.60;;
71303;SDS011;59091;47.446;19.148;2023-05-10T13:50:53;3.97;;;1.40;;
71303;SDS011;59091;47.446;19.148;2023-05-10T13:53:19;1.50;;;1.40;;
71303;SDS011;59091;47.446;19.148;2023-05-10T13:55:44;1.10;;;0.98;;
71303;SDS011;59091;47.446;19.148;2023-05-10T13:58:09;1.45;;;1.30;;
71303;SDS011;59091;47.446;19.148;2023-05-10T14:00:35;1.40;;;1.30;;
71303;SDS011;59091;47.446;19.148;2023-05-10T14:03:01;1.92;;;1.40;;
71303;SDS011;59091;47.446;19.148;2023-05-10T14:05:26;2.88;;;1.30;;
71303;SDS011;59091;47.446;19.148;2023-05-10T14:07:51;2.35;;;1.20;;
71303;SDS011;59091;47.446;19.148;2023-05-10T14:10:17;2.95;;;1.20;;
71303;SDS011;59091;47.446;19.148;2023-05-10T14:12:42;1.60;;;1.10;;
71303;SDS011;59091;47.446;19.148;2023-05-10T14:15:08;3.42;;;1.58;;
71303;SDS011;59091;47.446;19.148;2023-05-10T14:17:36;8.80;;;1.25;;
71303;SDS011;59091;47.446;19.148;2023-05-10T14:20:01;4.03;;;1.40;;
71303;SDS011;59091;47.446;19.148;2023-05-10T14:22:27;10.40;;;1.55;;
71303;SDS011;59091;47.446;19.148;2023-05-10T14:24:52;3.55;;;1.90;;
71303;SDS011;59091;47.446;19.148;2023-05-10T14:27:18;9.82;;;1.75;;
71303;SDS011;59091;47.446;19.148;2023-05-10T14:29:44;2.75;;;1.48;;
71303;SDS011;59091;47.446;19.148;2023-05-10T14:32:09;5.90;;;1.77;;
71303;SDS011;59091;47.446;19.148;2023-05-10T14:34:35;7.75;;;1.40;;
71303;SDS011;59091;47.446;19.148;2023-05-10T14:37:00;1.95;;;1.38;;
71303;SDS011;59091;47.446;19.148;2023-05-10T14:39:26;1.50;;;1.40;;
71303;SDS011;59091;47.446;19.148;2023-05-10T14:41:54;3.75;;;1.35;;
71303;SDS011;59091;47.446;19.148;2023-05-10T14:44:20;6.53;;;1.48;;
71303;SDS011;59091;47.446;19.148;2023-05-10T14:46:45;2.08;;;1.63;;
71303;SDS011;59091;47.446;19.148;2023-05-10T14:49:11;3.30;;;1.48;;
71303;SDS011;59091;47.446;19.148;2023-05-10T14:51:36;1.85;;;1.27;;
71303;SDS011;59091;47.446;19.148;2023-05-10T14:54:02;1.85;;;1.50;;
71303;SDS011;59091;47.446;19.148;2023-05-10T14:56:27;2.00;;;1.13;;
71303;SDS011;59091;47.446;19.148;2023-05-10T14:58:53;1.95;;;1.60;;
71303;SDS011;59091;47.446;19.148;2023-05-10T15:01:18;6.03;;;1.33;;
71303;SDS011;59091;47.446;19.148;2023-05-10T15:03:44;4.10;;;2.22;;
71303;SDS011;59091;47.446;19.148;2023-05-10T15:06:09;3.63;;;1.20;;
71303;SDS011;59091;47.446;19.148;2023-05-10T15:08:35;2.90;;;1.30;;
71303;SDS011;59091;47.446;19.148;2023-05-10T15:11:01;3.25;;;1.20;;